sensor_id;sensor_type;location;lat;lon;timestamp;pressure;altitude;pressure_sealevel;temperature;humidity
68525;BME280;55524;51.380;13.372;2023-04-08T00:00:42;100938.97;;;4.51;100.00
68525;BME280;55524;51.380;13.372;2023-04-08T00:03:08;100934.56;;;4.58;100.00
68525;BME280;55524;51.380;13.372;2023-04-08T00:05:35;100934.59;;;4.56;100.00
68525;BME280;55524;51.380;13.372;2023-04-08T00:08:01;100940.66;;;4.63;100.00
68525;BME280;55524;51.380;13.372;2023-04-08T00:10:27;100942.38;;;4.68;100.00
68525;BME280;55524;51.380;13.372;2023-04-08T00:12:53;100933.66;;;4.66;100.00
68525;BME280;55524;51.380;13.372;2023-04-08T00:15:20;100936.25;;;4.71;100.00
68525;BME280;55524;51.380;13.372;2023-04-08T00:17:47;100933.63;;;4.71;100.00
68525;BME280;55524;51.380;13.372;2023-04-08T00:20:13;100937.13;;;4.67;100.00
68525;BME280;55524;51.380;13.372;2023-04-08T00:22:39;100931.94;;;4.62;100.00
68525;BME280;55524;51.380;13.372;2023-04-08T00:25:06;100927.56;;;4.63;100.00
68525;BME280;55524;51.380;13.372;2023-04-08T00:27:34;100935.41;;;4.67;100.00
68525;BME280;55524;51.380;13.372;2023-04-08T00:30:00;100931.91;;;4.68;100.00
68525;BME280;55524;51.380;13.372;2023-04-08T00:32:27;100938.84;;;4.74;100.00
68525;BME280;55524;51.380;13.372;2023-04-08T00:34:54;100936.22;;;4.74;100.00
68525;BME280;55524;51.380;13.372;2023-04-08T00:37:20;100937.16;;;4.68;100.00
68525;BME280;55524;51.380;13.372;2023-04-08T00:39:48;100931.84;;;4.78;100.00
68525;BME280;55524;51.380;13.372;2023-04-08T00:42:14;100944.97;;;4.73;100.00
68525;BME280;55524;51.380;13.372;2023-04-08T00:44:40;100938.00;;;4.69;100.00
68525;BME280;55524;51.380;13.372;2023-04-08T00:47:10;100936.22;;;4.74;100.00
68525;BME280;55524;51.380;13.372;2023-04-08T00:49:37;100935.38;;;4.75;100.00
68525;BME280;55524;51.380;13.372;2023-04-08T00:52:03;100931.91;;;4.67;100.00
68525;BME280;55524;51.380;13.372;2023-04-08T00:54:30;100933.66;;;4.68;100.00
68525;BME280;55524;51.380;13.372;2023-04-08T00:56:57;100936.25;;;4.76;100.00
68525;BME280;55524;51.380;13.372;2023-04-08T00:59:28;100930.13;;;4.74;100.00
68525;BME280;55524;51.380;13.372;2023-04-08T01:07:33;100937.09;;;4.75;100.00
68525;BME280;55524;51.380;13.372;2023-04-08T01:10:19;100938.88;;;4.69;100.00
68525;BME280;55524;51.380;13.372;2023-04-08T01:13:07;100930.13;;;4.74;100.00
68525;BME280;55524;51.380;13.372;2023-04-08T01:15:37;100930.13;;;4.71;100.00
68525;BME280;55524;51.380;13.372;2023-04-08T01:18:10;100936.22;;;4.74;100.00
68525;BME280;55524;51.380;13.372;2023-04-08T01:20:41;100938.88;;;4.66;100.00
68525;BME280;55524;51.380;13.372;2023-04-08T01:23:32;100934.47;;;4.75;100.00
68525;BME280;55524;51.380;13.372;2023-04-08T01:26:03;100942.34;;;4.75;100.00
68525;BME280;55524;51.380;13.372;2023-04-08T01:28:30;100945.00;;;4.68;100.00
68525;BME280;55524;51.380;13.372;2023-04-08T01:30:59;100945.88;;;4.67;100.00
68525;BME280;55524;51.380;13.372;2023-04-08T01:33:27;100940.66;;;4.67;100.00
68525;BME280;55524;51.380;13.372;2023-04-08T01:35:56;100940.59;;;4.74;100.00
68525;BME280;55524;51.380;13.372;2023-04-08T01:38:24;100937.09;;;4.75;100.00
68525;BME280;55524;51.380;13.372;2023-04-08T01:40:52;100934.53;;;4.68;100.00
68525;BME280;55524;51.380;13.372;2023-04-08T01:43:20;100929.28;;;4.72;100.00
68525;BME280;55524;51.380;13.372;2023-04-08T01:45:47;100926.63;;;4.75;100.00
68525;BME280;55524;51.380;13.372;2023-04-08T01:48:14;100929.28;;;4.68;100.00
68525;BME280;55524;51.380;13.372;2023-04-08T01:50:43;100929.28;;;4.67;100.00
68525;BME280;55524;51.380;13.372;2023-04-08T01:53:10;100922.28;;;4.71;100.00
68525;BME280;55524;51.380;13.372;2023-04-08T01:55:39;100928.41;;;4.66;100.00
68525;BME280;55524;51.380;13.372;2023-04-08T01:58:07;100927.53;;;4.69;100.00
68525;BME280;55524;51.380;13.372;2023-04-08T02:00:37;100929.28;;;4.68;100.00
68525;BME280;55524;51.380;13.372;2023-04-08T02:03:05;100937.16;;;4.68;100.00
68525;BME280;55524;51.380;13.372;2023-04-08T02:05:32;100936.28;;;4.68;100.00
68525;BME280;55524;51.380;13.372;2023-04-08T02:07:59;100930.19;;;4.67;100.00
68525;BME280;55524;51.380;13.372;2023-04-08T02:10:25;100938.88;;;4.66;100.00
68525;BME280;55524;51.380;13.372;2023-04-08T02:12:52;100938.94;;;4.63;100.00
68525;BME280;55524;51.380;13.372;2023-04-08T02:15:18;100943.28;;;4.64;100.00
68525;BME280;55524;51.380;13.372;2023-04-08T02:17:55;100945.91;;;4.64;100.00
68525;BME280;55524;51.380;13.372;2023-04-08T02:20:37;100945.00;;;4.65;100.00
68525;BME280;55524;51.380;13.372;2023-04-08T02:23:19;100950.25;;;4.68;100.00
68525;BME280;55524;51.380;13.372;2023-04-08T02:25:46;100940.63;;;4.71;100.00
68525;BME280;55524;51.380;13.372;2023-04-08T02:28:14;100945.88;;;4.69;100.00
68525;BME280;55524;51.380;13.372;2023-04-08T02:30:47;100944.09;;;4.71;100.00
68525;BME280;55524;51.380;13.372;2023-04-08T02:33:14;100945.00;;;4.65;100.00
68525;BME280;55524;51.380;13.372;2023-04-08T02:35:42;100940.66;;;4.67;100.00
68525;BME280;55524;51.380;13.372;2023-04-08T02:38:10;100944.13;;;4.68;100.00
68525;BME280;55524;51.380;13.372;2023-04-08T02:40:36;100954.59;;;4.66;100.00
68525;BME280;55524;51.380;13.372;2023-04-08T02:43:03;100947.63;;;4.65;100.00
68525;BME280;55524;51.380;13.372;2023-04-08T02:45:39;100946.72;;;4.69;100.00
68525;BME280;55524;51.380;13.372;2023-04-08T02:48:06;100951.13;;;4.67;100.00
68525;BME280;55524;51.380;13.372;2023-04-08T02:50:32;100950.25;;;4.68;100.00
68525;BME280;55524;51.380;13.372;2023-04-08T02:52:59;100947.63;;;4.68;100.00
68525;BME280;55524;51.380;13.372;2023-04-08T02:55:25;100953.75;;;4.64;100.00
68525;BME280;55524;51.380;13.372;2023-04-08T02:57:51;100952.88;;;4.65;100.00
68525;BME280;55524;51.380;13.372;2023-04-08T03:00:18;100954.59;;;4.68;100.00
68525;BME280;55524;51.380;13.372;2023-04-08T03:02:44;100958.16;;;4.59;100.00
68525;BME280;55524;51.380;13.372;2023-04-08T03:05:10;100954.59;;;4.66;100.00
68525;BME280;55524;51.380;13.372;2023-04-08T03:07:37;100944.16;;;4.63;100.00
68525;BME280;55524;51.380;13.372;2023-04-08T03:10:04;100941.50;;;4.66;100.00
68525;BME280;55524;51.380;13.372;2023-04-08T03:12:31;100945.88;;;4.67;100.00
68525;BME280;55524;51.380;13.372;2023-04-08T03:14:58;100953.72;;;4.69;100.00
68525;BME280;55524;51.380;13.372;2023-04-08T03:17:24;100958.09;;;4.65;100.00
68525;BME280;55524;51.380;13.372;2023-04-08T03:19:50;100959.84;;;4.65;100.00
68525;BME280;55524;51.380;13.372;2023-04-08T03:22:17;100964.16;;;4.71;100.00
68525;BME280;55524;51.380;13.372;2023-04-08T03:24:44;100964.22;;;4.67;100.00
68525;BME280;55524;51.380;13.372;2023-04-08T03:27:10;100968.56;;;4.68;100.00
68525;BME280;55524;51.380;13.372;2023-04-08T03:29:37;100959.84;;;4.68;100.00
68525;BME280;55524;51.380;13.372;2023-04-08T03:32:03;100965.09;;;4.65;100.00
68525;BME280;55524;51.380;13.372;2023-04-08T03:34:30;100967.69;;;4.66;100.00
68525;BME280;55524;51.380;13.372;2023-04-08T03:36:56;100965.94;;;4.67;100.00
68525;BME280;55524;51.380;13.372;2023-04-08T03:39:22;100970.34;;;4.59;100.00
68525;BME280;55524;51.380;13.372;2023-04-08T03:41:49;100966.84;;;4.61;100.00
68525;BME280;55524;51.380;13.372;2023-04-08T03:44:15;100965.13;;;4.60;100.00
68525;BME280;55524;51.380;13.372;2023-04-08T03:46:41;100965.09;;;4.65;100.00
68525;BME280;55524;51.380;13.372;2023-04-08T03:49:08;100968.56;;;4.62;100.00
68525;BME280;55524;51.380;13.372;2023-04-08T03:51:34;100963.31;;;4.67;100.00
68525;BME280;55524;51.380;13.372;2023-04-08T03:54:00;100974.66;;;4.66;100.00
68525;BME280;55524;51.380;13.372;2023-04-08T03:56:26;100972.06;;;4.64;100.00
68525;BME280;55524;51.380;13.372;2023-04-08T03:58:53;100973.78;;;4.68;100.00
68525;BME280;55524;51.380;13.372;2023-04-08T04:01:19;100966.84;;;4.67;100.00
68525;BME280;55524;51.380;13.372;2023-04-08T04:03:46;100972.97;;;4.63;100.00
68525;BME280;55524;51.380;13.372;2023-04-08T04:06:12;100972.91;;;4.66;100.00
68525;BME280;55524;51.380;13.372;2023-04-08T04:08:38;100972.94;;;4.65;100.00
68525;BME280;55524;51.380;13.372;2023-04-08T04:11:04;100979.00;;;4.70;100.00
68525;BME280;55524;51.380;13.372;2023-04-08T04:13:31;100979.88;;;4.71;100.00
68525;BME280;55524;51.380;13.372;2023-04-08T04:15:57;100980.75;;;4.73;100.00
68525;BME280;55524;51.380;13.372;2023-04-08T04:18:23;100977.25;;;4.74;100.00
68525;BME280;55524;51.380;13.372;2023-04-08T04:20:49;100985.13;;;4.69;100.00
68525;BME280;55524;51.380;13.372;2023-04-08T04:23:16;100986.84;;;4.75;100.00
68525;BME280;55524;51.380;13.372;2023-04-08T04:25:42;100995.59;;;4.71;100.00
68525;BME280;55524;51.380;13.372;2023-04-08T04:28:09;100999.06;;;4.74;100.00
68525;BME280;55524;51.380;13.372;2023-04-08T04:30:39;100993.84;;;4.66;100.00
68525;BME280;55524;51.380;13.372;2023-04-08T04:33:06;100999.06;;;4.76;100.00
68525;BME280;55524;51.380;13.372;2023-04-08T04:35:32;100999.97;;;4.72;100.00
68525;BME280;55524;51.380;13.372;2023-04-08T04:37:59;100993.84;;;4.73;100.00
68525;BME280;55524;51.380;13.372;2023-04-08T04:40:25;100987.75;;;4.72;100.00
68525;BME280;55524;51.380;13.372;2023-04-08T04:42:52;100995.59;;;4.75;100.00
68525;BME280;55524;51.380;13.372;2023-04-08T04:45:18;100992.97;;;4.74;100.00
68525;BME280;55524;51.380;13.372;2023-04-08T04:47:44;100996.44;;;4.77;100.00
68525;BME280;55524;51.380;13.372;2023-04-08T04:50:10;101000.81;;;4.75;100.00
68525;BME280;55524;51.380;13.372;2023-04-08T04:52:37;101001.69;;;4.77;100.00
68525;BME280;55524;51.380;13.372;2023-04-08T04:55:03;101005.19;;;4.73;100.00
68525;BME280;55524;51.380;13.372;2023-04-08T04:57:29;101013.00;;;4.78;100.00
68525;BME280;55524;51.380;13.372;2023-04-08T04:59:56;101014.78;;;4.74;100.00
68525;BME280;55524;51.380;13.372;2023-04-08T05:02:22;101021.75;;;4.80;100.00
68525;BME280;55524;51.380;13.372;2023-04-08T05:04:48;101022.63;;;4.77;100.00
68525;BME280;55524;51.380;13.372;2023-04-08T05:07:15;101026.06;;;4.82;100.00
68525;BME280;55524;51.380;13.372;2023-04-08T05:09:41;101026.09;;;4.81;100.00
68525;BME280;55524;51.380;13.372;2023-04-08T05:12:07;101026.06;;;4.85;100.00
68525;BME280;55524;51.380;13.372;2023-04-08T05:14:33;101025.22;;;4.80;100.00
68525;BME280;55524;51.380;13.372;2023-04-08T05:17:00;101029.59;;;4.80;100.00
68525;BME280;55524;51.380;13.372;2023-04-08T05:19:26;101026.09;;;4.84;100.00
68525;BME280;55524;51.380;13.372;2023-04-08T05:21:52;101027.84;;;4.83;100.00
68525;BME280;55524;51.380;13.372;2023-04-08T05:24:18;101027.81;;;4.88;100.00
68525;BME280;55524;51.380;13.372;2023-04-08T05:26:45;101028.66;;;4.90;100.00
68525;BME280;55524;51.380;13.372;2023-04-08T05:29:12;101034.78;;;4.92;100.00
68525;BME280;55524;51.380;13.372;2023-04-08T05:31:39;101034.78;;;4.90;100.00
68525;BME280;55524;51.380;13.372;2023-04-08T05:34:05;101036.50;;;4.98;100.00
68525;BME280;55524;51.380;13.372;2023-04-08T05:36:31;101039.97;;;5.04;100.00
68525;BME280;55524;51.380;13.372;2023-04-08T05:38:58;101036.47;;;5.04;100.00
68525;BME280;55524;51.380;13.372;2023-04-08T05:41:24;101041.69;;;5.05;100.00
68525;BME280;55524;51.380;13.372;2023-04-08T05:43:50;101042.53;;;5.12;100.00
68525;BME280;55524;51.380;13.372;2023-04-08T05:46:16;101051.22;;;5.17;100.00
68525;BME280;55524;51.380;13.372;2023-04-08T05:48:43;101047.72;;;5.24;100.00
68525;BME280;55524;51.380;13.372;2023-04-08T05:51:15;101046.84;;;5.27;100.00
68525;BME280;55524;51.380;13.372;2023-04-08T05:53:44;101044.16;;;5.33;100.00
68525;BME280;55524;51.380;13.372;2023-04-08T05:56:12;101049.41;;;5.31;100.00
68525;BME280;55524;51.380;13.372;2023-04-08T05:58:38;101052.00;;;5.39;100.00
68525;BME280;55524;51.380;13.372;2023-04-08T06:01:04;101057.22;;;5.40;100.00
68525;BME280;55524;51.380;13.372;2023-04-08T06:03:32;101058.97;;;5.43;100.00
68525;BME280;55524;51.380;13.372;2023-04-08T06:05:59;101052.00;;;5.39;100.00
68525;BME280;55524;51.380;13.372;2023-04-08T06:08:25;101061.56;;;5.45;100.00
68525;BME280;55524;51.380;13.372;2023-04-08T06:10:52;101060.63;;;5.52;100.00
68525;BME280;55524;51.380;13.372;2023-04-08T06:13:18;101064.97;;;5.54;100.00
68525;BME280;55524;51.380;13.372;2023-04-08T06:15:46;101067.56;;;5.60;100.00
68525;BME280;55524;51.380;13.372;2023-04-08T06:18:15;101072.78;;;5.63;100.00
68525;BME280;55524;51.380;13.372;2023-04-08T06:20:41;101077.13;;;5.69;100.00
68525;BME280;55524;51.380;13.372;2023-04-08T06:23:07;101077.09;;;5.72;100.00
68525;BME280;55524;51.380;13.372;2023-04-08T06:25:34;101082.31;;;5.77;100.00
68525;BME280;55524;51.380;13.372;2023-04-08T06:28:00;101080.50;;;5.82;100.00
68525;BME280;55524;51.380;13.372;2023-04-08T06:30:26;101089.28;;;5.82;100.00
68525;BME280;55524;51.380;13.372;2023-04-08T06:32:52;101091.84;;;5.85;100.00
68525;BME280;55524;51.380;13.372;2023-04-08T06:35:19;101093.59;;;5.93;100.00
68525;BME280;55524;51.380;13.372;2023-04-08T06:37:45;101087.44;;;5.97;100.00
68525;BME280;55524;51.380;13.372;2023-04-08T06:40:11;101099.63;;;6.01;100.00
68525;BME280;55524;51.380;13.372;2023-04-08T06:42:37;101102.22;;;6.07;100.00
68525;BME280;55524;51.380;13.372;2023-04-08T06:45:06;101102.16;;;6.13;100.00
68525;BME280;55524;51.380;13.372;2023-04-08T06:47:32;101097.75;;;6.20;100.00
68525;BME280;55524;51.380;13.372;2023-04-08T06:49:59;101094.19;;;6.27;100.00
68525;BME280;55524;51.380;13.372;2023-04-08T06:52:25;101098.47;;;6.35;100.00
68525;BME280;55524;51.380;13.372;2023-04-08T06:54:52;101099.28;;;6.40;100.00
68525;BME280;55524;51.380;13.372;2023-04-08T06:57:18;101102.75;;;6.46;100.00
68525;BME280;55524;51.380;13.372;2023-04-08T06:59:45;101110.59;;;6.49;100.00
68525;BME280;55524;51.380;13.372;2023-04-08T07:02:11;101108.81;;;6.54;100.00
68525;BME280;55524;51.380;13.372;2023-04-08T07:04:38;101114.84;;;6.60;100.00
68525;BME280;55524;51.380;13.372;2023-04-08T07:07:04;101118.34;;;6.61;100.00
68525;BME280;55524;51.380;13.372;2023-04-08T07:09:30;101118.25;;;6.69;100.00
68525;BME280;55524;51.380;13.372;2023-04-08T07:11:57;101130.44;;;6.76;100.00
68525;BME280;55524;51.380;13.372;2023-04-08T07:14:24;101124.38;;;6.71;100.00
68525;BME280;55524;51.380;13.372;2023-04-08T07:16:51;101133.13;;;6.71;100.00
68525;BME280;55524;51.380;13.372;2023-04-08T07:19:17;101130.44;;;6.76;100.00
68525;BME280;55524;51.380;13.372;2023-04-08T07:21:43;101136.50;;;6.82;100.00
68525;BME280;55524;51.380;13.372;2023-04-08T07:24:10;101132.19;;;6.78;100.00
68525;BME280;55524;51.380;13.372;2023-04-08T07:26:37;101132.94;;;6.89;100.00
68525;BME280;55524;51.380;13.372;2023-04-08T07:29:04;101134.59;;;6.98;100.00
68525;BME280;55524;51.380;13.372;2023-04-08T07:31:30;101133.53;;;7.11;100.00
68525;BME280;55524;51.380;13.372;2023-04-08T07:33:56;101133.63;;;7.05;100.00
68525;BME280;55524;51.380;13.372;2023-04-08T07:36:22;101138.81;;;7.11;100.00
68525;BME280;55524;51.380;13.372;2023-04-08T07:38:49;101137.03;;;7.13;100.00
68525;BME280;55524;51.380;13.372;2023-04-08T07:41:15;101139.72;;;7.09;100.00
68525;BME280;55524;51.380;13.372;2023-04-08T07:43:41;101139.72;;;7.09;100.00
68525;BME280;55524;51.380;13.372;2023-04-08T07:46:08;101137.91;;;7.14;100.00
68525;BME280;55524;51.380;13.372;2023-04-08T07:48:34;101146.56;;;7.22;100.00
68525;BME280;55524;51.380;13.372;2023-04-08T07:51:04;101146.63;;;7.18;100.00
68525;BME280;55524;51.380;13.372;2023-04-08T07:53:31;101153.66;;;7.15;100.00
68525;BME280;55524;51.380;13.372;2023-04-08T07:55:58;101152.75;;;7.17;100.00
68525;BME280;55524;51.380;13.372;2023-04-08T07:58:25;101159.75;;;7.16;100.00
68525;BME280;55524;51.380;13.372;2023-04-08T08:00:52;101161.47;;;7.20;100.00
68525;BME280;55524;51.380;13.372;2023-04-08T08:03:18;101165.03;;;7.16;100.00
68525;BME280;55524;51.380;13.372;2023-04-08T08:05:44;101172.06;;;7.14;100.00
68525;BME280;55524;51.380;13.372;2023-04-08T08:08:11;101173.75;;;7.20;100.00
68525;BME280;55524;51.380;13.372;2023-04-08T08:10:38;101177.31;;;7.15;100.00
68525;BME280;55524;51.380;13.372;2023-04-08T08:13:05;101186.13;;;7.08;100.00
68525;BME280;55524;51.380;13.372;2023-04-08T08:15:32;101187.00;;;7.10;100.00
68525;BME280;55524;51.380;13.372;2023-04-08T08:17:58;101187.97;;;7.05;100.00
68525;BME280;55524;51.380;13.372;2023-04-08T08:20:25;101190.56;;;7.03;100.00
68525;BME280;55524;51.380;13.372;2023-04-08T08:22:52;101191.34;;;7.14;100.00
68525;BME280;55524;51.380;13.372;2023-04-08T08:25:18;101198.25;;;7.23;100.00
68525;BME280;55524;51.380;13.372;2023-04-08T08:27:44;101191.38;;;7.13;100.00
68525;BME280;55524;51.380;13.372;2023-04-08T08:30:11;101191.56;;;7.67;100.00
68525;BME280;55524;51.380;13.372;2023-04-08T08:32:37;101179.16;;;8.34;98.70
68525;BME280;55524;51.380;13.372;2023-04-08T08:35:03;101177.91;;;9.06;95.90
68525;BME280;55524;51.380;13.372;2023-04-08T08:37:30;101161.84;;;9.61;91.21
68525;BME280;55524;51.380;13.372;2023-04-08T08:39:56;101166.03;;;9.72;89.15
68525;BME280;55524;51.380;13.372;2023-04-08T08:42:24;101162.81;;;9.98;86.35
68525;BME280;55524;51.380;13.372;2023-04-08T08:44:51;101131.28;;;9.51;80.53
68525;BME280;55524;51.380;13.372;2023-04-08T08:47:17;101165.50;;;10.33;83.31
68525;BME280;55524;51.380;13.372;2023-04-08T08:49:44;101104.28;;;10.50;74.99
68525;BME280;55524;51.380;13.372;2023-04-08T08:52:16;101127.94;;;10.55;76.92
68525;BME280;55524;51.380;13.372;2023-04-08T08:54:44;101127.94;;;11.19;76.57
68525;BME280;55524;51.380;13.372;2023-04-08T08:57:18;101119.63;;;10.69;75.22
68525;BME280;55524;51.380;13.372;2023-04-08T08:59:47;101114.44;;;11.28;72.84
68525;BME280;55524;51.380;13.372;2023-04-08T09:02:30;101119.81;;;10.28;73.71
68525;BME280;55524;51.380;13.372;2023-04-08T09:05:00;101146.38;;;11.51;76.18
68525;BME280;55524;51.380;13.372;2023-04-08T09:07:29;101129.16;;;11.38;72.84
68525;BME280;55524;51.380;13.372;2023-04-08T09:09:56;101146.75;;;10.43;75.73
68525;BME280;55524;51.380;13.372;2023-04-08T09:12:24;101139.44;;;10.17;74.07
68525;BME280;55524;51.380;13.372;2023-04-08T09:15:08;101167.69;;;9.76;76.19
68525;BME280;55524;51.380;13.372;2023-04-08T09:17:39;101173.47;;;9.53;76.74
68525;BME280;55524;51.380;13.372;2023-04-08T09:20:10;101209.41;;;9.99;82.21
68525;BME280;55524;51.380;13.372;2023-04-08T09:23:03;101179.91;;;10.19;78.84
68525;BME280;55524;51.380;13.372;2023-04-08T09:25:31;101178.75;;;9.53;77.59
68525;BME280;55524;51.380;13.372;2023-04-08T09:27:58;101203.47;;;9.04;80.40
68525;BME280;55524;51.380;13.372;2023-04-08T09:30:27;101208.13;;;9.36;80.80
68525;BME280;55524;51.380;13.372;2023-04-08T09:32:57;101209.41;;;9.58;81.12
68525;BME280;55524;51.380;13.372;2023-04-08T09:35:24;101200.19;;;9.78;79.94
68525;BME280;55524;51.380;13.372;2023-04-08T09:37:51;101207.19;;;9.80;80.23
68525;BME280;55524;51.380;13.372;2023-04-08T09:40:17;101197.78;;;10.07;78.83
68525;BME280;55524;51.380;13.372;2023-04-08T09:42:46;101185.59;;;10.02;77.08
68525;BME280;55524;51.380;13.372;2023-04-08T09:45:16;101203.91;;;9.69;78.37
68525;BME280;55524;51.380;13.372;2023-04-08T09:47:58;101203.22;;;9.59;78.15
68525;BME280;55524;51.380;13.372;2023-04-08T09:50:31;101199.31;;;9.79;77.49
68525;BME280;55524;51.380;13.372;2023-04-08T09:53:11;101190.41;;;9.41;76.40
68525;BME280;55524;51.380;13.372;2023-04-08T09:55:40;101226.34;;;9.89;79.79
68525;BME280;55524;51.380;13.372;2023-04-08T09:58:24;101205.06;;;9.98;77.69
68525;BME280;55524;51.380;13.372;2023-04-08T10:00:54;101195.38;;;9.56;77.09
68525;BME280;55524;51.380;13.372;2023-04-08T10:03:32;101188.91;;;9.71;75.96
68525;BME280;55524;51.380;13.372;2023-04-08T10:06:01;101215.41;;;9.65;79.07
68525;BME280;55524;51.380;13.372;2023-04-08T10:08:29;101205.22;;;9.89;78.71
68525;BME280;55524;51.380;13.372;2023-04-08T10:10:56;101199.78;;;9.96;77.33
68525;BME280;55524;51.380;13.372;2023-04-08T10:13:24;101221.66;;;10.03;78.86
68525;BME280;55524;51.380;13.372;2023-04-08T10:15:50;101205.56;;;9.73;78.17
68525;BME280;55524;51.380;13.372;2023-04-08T10:18:36;101227.53;;;9.74;80.69
68525;BME280;55524;51.380;13.372;2023-04-08T10:21:03;101232.75;;;9.35;80.10
68525;BME280;55524;51.380;13.372;2023-04-08T10:23:53;101231.66;;;9.45;81.24
68525;BME280;55524;51.380;13.372;2023-04-08T10:26:31;101228.41;;;9.32;80.65
68525;BME280;55524;51.380;13.372;2023-04-08T10:29:37;101234.84;;;9.18;81.84
68525;BME280;55524;51.380;13.372;2023-04-08T10:32:03;101234.00;;;9.16;81.88
68525;BME280;55524;51.380;13.372;2023-04-08T10:34:29;101236.47;;;9.25;81.98
68525;BME280;55524;51.380;13.372;2023-04-08T10:36:56;101237.09;;;9.38;83.34
68525;BME280;55524;51.380;13.372;2023-04-08T10:39:25;101236.72;;;9.56;83.08
68525;BME280;55524;51.380;13.372;2023-04-08T10:41:52;101255.09;;;9.60;84.41
68525;BME280;55524;51.380;13.372;2023-04-08T10:44:20;101249.41;;;9.37;84.06
68525;BME280;55524;51.380;13.372;2023-04-08T10:46:47;101245.41;;;9.63;82.78
68525;BME280;55524;51.380;13.372;2023-04-08T10:49:15;101245.91;;;9.80;82.96
68525;BME280;55524;51.380;13.372;2023-04-08T10:51:43;101233.47;;;9.85;81.17
68525;BME280;55524;51.380;13.372;2023-04-08T10:54:11;101238.56;;;9.94;80.98
68525;BME280;55524;51.380;13.372;2023-04-08T10:56:51;101231.19;;;9.68;80.87
68525;BME280;55524;51.380;13.372;2023-04-08T10:59:30;101229.31;;;9.75;80.33
68525;BME280;55524;51.380;13.372;2023-04-08T11:02:00;101232.66;;;9.81;81.39
68525;BME280;55524;51.380;13.372;2023-04-08T11:04:27;101227.50;;;9.77;80.04
68525;BME280;55524;51.380;13.372;2023-04-08T11:06:53;101239.44;;;9.93;81.42
68525;BME280;55524;51.380;13.372;2023-04-08T11:09:19;101229.22;;;10.18;81.49
68525;BME280;55524;51.380;13.372;2023-04-08T11:11:46;101243.47;;;10.09;82.91
68525;BME280;55524;51.380;13.372;2023-04-08T11:14:13;101249.84;;;10.01;85.29
68525;BME280;55524;51.380;13.372;2023-04-08T11:16:39;101245.84;;;9.83;85.18
68525;BME280;55524;51.380;13.372;2023-04-08T11:19:06;101253.06;;;9.75;86.24
68525;BME280;55524;51.380;13.372;2023-04-08T11:21:37;101238.75;;;9.87;83.40
68525;BME280;55524;51.380;13.372;2023-04-08T11:24:10;101236.97;;;9.87;82.71
68525;BME280;55524;51.380;13.372;2023-04-08T11:26:37;101250.72;;;10.01;83.12
68525;BME280;55524;51.380;13.372;2023-04-08T11:29:04;101242.38;;;10.20;82.71
68525;BME280;55524;51.380;13.372;2023-04-08T11:31:32;101241.97;;;10.40;82.27
68525;BME280;55524;51.380;13.372;2023-04-08T11:33:58;101245.97;;;10.56;82.03
68525;BME280;55524;51.380;13.372;2023-04-08T11:36:27;101238.91;;;10.56;80.53
68525;BME280;55524;51.380;13.372;2023-04-08T11:38:54;101230.09;;;10.19;78.22
68525;BME280;55524;51.380;13.372;2023-04-08T11:41:35;101238.56;;;9.94;80.03
68525;BME280;55524;51.380;13.372;2023-04-08T11:44:03;101237.03;;;9.84;79.94
68525;BME280;55524;51.380;13.372;2023-04-08T11:46:30;101251.28;;;9.75;81.67
68525;BME280;55524;51.380;13.372;2023-04-08T11:49:02;101261.03;;;9.72;82.97
68525;BME280;55524;51.380;13.372;2023-04-08T11:51:28;101270.19;;;9.54;83.79
68525;BME280;55524;51.380;13.372;2023-04-08T11:53:55;101284.47;;;8.94;85.51
68525;BME280;55524;51.380;13.372;2023-04-08T11:56:23;101295.25;;;8.79;85.61
68525;BME280;55524;51.380;13.372;2023-04-08T11:58:49;101291.00;;;8.70;86.00
68525;BME280;55524;51.380;13.372;2023-04-08T12:01:17;101289.50;;;8.55;86.44
68525;BME280;55524;51.380;13.372;2023-04-08T12:03:54;101299.03;;;8.64;86.66
68525;BME280;55524;51.380;13.372;2023-04-08T12:06:21;101294.91;;;8.48;85.77
68525;BME280;55524;51.380;13.372;2023-04-08T12:08:48;101289.78;;;8.37;84.49
68525;BME280;55524;51.380;13.372;2023-04-08T12:11:14;101299.50;;;8.29;85.22
68525;BME280;55524;51.380;13.372;2023-04-08T12:13:41;101296.47;;;8.58;85.08
68525;BME280;55524;51.380;13.372;2023-04-08T12:16:08;101295.53;;;8.64;84.49
68525;BME280;55524;51.380;13.372;2023-04-08T12:18:34;101289.25;;;8.71;83.95
68525;BME280;55524;51.380;13.372;2023-04-08T12:21:00;101294.63;;;8.65;83.24
68525;BME280;55524;51.380;13.372;2023-04-08T12:23:26;101298.28;;;8.56;83.38
68525;BME280;55524;51.380;13.372;2023-04-08T12:25:52;101305.13;;;8.68;83.22
68525;BME280;55524;51.380;13.372;2023-04-08T12:28:19;101296.66;;;8.46;83.18
68525;BME280;55524;51.380;13.372;2023-04-08T12:30:46;101304.44;;;8.53;83.99
68525;BME280;55524;51.380;13.372;2023-04-08T12:33:13;101306.16;;;8.57;83.66
68525;BME280;55524;51.380;13.372;2023-04-08T12:35:39;101311.03;;;8.82;84.49
68525;BME280;55524;51.380;13.372;2023-04-08T12:38:05;101303.00;;;8.90;83.04
68525;BME280;55524;51.380;13.372;2023-04-08T12:40:31;101306.56;;;8.87;82.86
68525;BME280;55524;51.380;13.372;2023-04-08T12:42:58;101300.22;;;8.99;81.89
68525;BME280;55524;51.380;13.372;2023-04-08T12:45:24;101305.41;;;9.03;82.43
68525;BME280;55524;51.380;13.372;2023-04-08T12:47:50;101301.97;;;9.00;81.28
68525;BME280;55524;51.380;13.372;2023-04-08T12:50:17;101293.09;;;9.04;81.70
68525;BME280;55524;51.380;13.372;2023-04-08T12:52:43;101295.00;;;8.94;80.81